Time;durP1;ratioP1;P1;durP2;ratioP2;P2;SDS_P1;SDS_P2;PMS_P1;PMS_P2;Temp;Humidity;BMP_temperature;BMP_pressure;BME280_temperature;BME280_humidity;BME280_pressure;Samples;Min_cycle;Max_cycle;Signal;HPM_P1;HPM_P2
2022/03/21 00:00:57;;;;;;;14.30;8.38;;;;;;;;;;5082384;28;20107;-46
2022/03/21 00:03:24;;;;;;;17.15;8.15;;;;;;;;;;5079672;28;20032;-50
2022/03/21 00:05:50;;;;;;;16.02;7.97;;;;;;;;;;5077584;28;20465;-51
2022/03/21 00:08:17;;;;;;;16.13;8.05;;;;;;;;;;5081333;28;20027;-50
2022/03/21 00:10:43;;;;;;;16.67;7.78;;;;;;;;;;5085392;28;20036;-46
2022/03/21 00:13:15;;;;;;;14.23;7.25;;;;;;;;;;5092285;28;20024;-50
2022/03/21 00:15:42;;;;;;;14.98;7.80;;;;;;;;;;5081549;28;20047;-48
2022/03/21 00:18:08;;;;;;;17.95;7.80;;;;;;;;;;5081014;28;20025;-46
2022/03/21 00:20:34;;;;;;;15.75;7.43;;;;;;;;;;5079231;28;20080;-51
2022/03/21 00:23:01;;;;;;;15.90;8.25;;;;;;;;;;5080323;28;20107;-48
2022/03/21 00:25:27;;;;;;;11.80;7.13;;;;;;;;;;5089376;28;20107;-47
2022/03/21 00:27:54;;;;;;;15.23;8.73;;;;;;;;;;5089315;28;20063;-48
2022/03/21 00:30:20;;;;;;;15.48;8.40;;;;;;;;;;5080348;28;20032;-46
2022/03/21 00:32:46;;;;;;;14.77;7.63;;;;;;;;;;5089141;28;20096;-47
2022/03/21 00:35:16;;;;;;;17.15;7.40;;;;;;;;;;5080534;28;20083;-46
2022/03/21 00:37:43;;;;;;;16.48;8.32;;;;;;;;;;5078976;28;20027;-46
2022/03/21 00:40:09;;;;;;;16.40;7.47;;;;;;;;;;5081886;28;20045;-48
2022/03/21 00:42:37;;;;;;;16.65;7.85;;;;;;;;;;5089674;28;20034;-47
2022/03/21 00:45:04;;;;;;;14.68;7.65;;;;;;;;;;5079891;28;20017;-49
2022/03/21 00:47:31;;;;;;;15.90;7.88;;;;;;;;;;5079922;28;20103;-47
2022/03/21 00:49:57;;;;;;;16.58;7.18;;;;;;;;;;5076940;28;20044;-49
2022/03/21 00:52:23;;;;;;;15.57;8.38;;;;;;;;;;5085927;28;20470;-48
2022/03/21 00:54:49;;;;;;;14.75;8.10;;;;;;;;;;5078870;28;20039;-49
2022/03/21 00:57:15;;;;;;;13.93;7.90;;;;;;;;;;5080250;28;20092;-47
2022/03/21 00:59:41;;;;;;;15.75;8.07;;;;;;;;;;5079388;28;20032;-49
2022/03/21 01:02:08;;;;;;;14.38;7.90;;;;;;;;;;5085412;28;20380;-47
2022/03/21 01:04:34;;;;;;;14.00;7.22;;;;;;;;;;5077084;28;20024;-46
2022/03/21 01:07:00;;;;;;;13.43;7.13;;;;;;;;;;5077872;28;20025;-48
2022/03/21 01:09:27;;;;;;;12.65;7.38;;;;;;;;;;5085126;28;20181;-47
2022/03/21 01:11:53;;;;;;;11.82;6.68;;;;;;;;;;5082583;28;20028;-46
2022/03/21 01:14:19;;;;;;;13.57;7.45;;;;;;;;;;5077144;28;20111;-48
2022/03/21 01:16:45;;;;;;;14.57;8.15;;;;;;;;;;5083289;28;20028;-47
2022/03/21 01:19:11;;;;;;;13.70;7.65;;;;;;;;;;5088248;28;20415;-49
2022/03/21 01:21:37;;;;;;;13.02;7.28;;;;;;;;;;5085385;28;20028;-47
2022/03/21 01:24:03;;;;;;;14.25;7.22;;;;;;;;;;5089444;28;20423;-46
2022/03/21 01:26:29;;;;;;;14.48;8.13;;;;;;;;;;5085790;28;20028;-48
2022/03/21 01:28:56;;;;;;;12.63;6.63;;;;;;;;;;5087527;28;20082;-47
2022/03/21 01:31:23;;;;;;;11.57;7.05;;;;;;;;;;5081519;28;20819;-49
2022/03/21 01:33:48;;;;;;;14.30;7.20;;;;;;;;;;5089487;28;20371;-48
2022/03/21 01:36:14;;;;;;;16.70;8.10;;;;;;;;;;5081052;28;20036;-46
2022/03/21 01:38:40;;;;;;;16.23;8.60;;;;;;;;;;5090623;28;20058;-46
2022/03/21 01:41:06;;;;;;;16.30;7.72;;;;;;;;;;5076483;28;20029;-48
2022/03/21 01:43:33;;;;;;;13.65;7.78;;;;;;;;;;5089683;28;20062;-48
2022/03/21 01:45:59;;;;;;;14.57;7.45;;;;;;;;;;5086690;28;20829;-49
2022/03/21 01:48:25;;;;;;;14.35;7.85;;;;;;;;;;5086402;28;20036;-48
2022/03/21 01:50:52;;;;;;;15.65;7.45;;;;;;;;;;5080525;28;20086;-46
2022/03/21 01:56:03;;;;;;;14.32;6.85;;;;;;;;;;5077817;28;20045;-49
2022/03/21 01:58:30;;;;;;;15.90;6.95;;;;;;;;;;5094280;28;20384;-48
2022/03/21 02:00:56;;;;;;;15.40;7.28;;;;;;;;;;5086457;28;20024;-48
2022/03/21 02:03:22;;;;;;;14.45;7.30;;;;;;;;;;5081133;28;20498;-49
2022/03/21 02:05:48;;;;;;;17.13;8.15;;;;;;;;;;5088462;28;20032;-48
2022/03/21 02:08:15;;;;;;;11.38;6.65;;;;;;;;;;5088919;28;20032;-50
2022/03/21 02:10:45;;;;;;;15.05;7.78;;;;;;;;;;5077062;28;20072;-49
2022/03/21 02:13:12;;;;;;;15.57;7.15;;;;;;;;;;5074728;28;20052;-48
2022/03/21 02:15:38;;;;;;;13.80;7.30;;;;;;;;;;5071787;28;20082;-48
2022/03/21 02:18:04;;;;;;;13.63;7.72;;;;;;;;;;5079446;28;20025;-48
2022/03/21 02:20:32;;;;;;;17.50;8.27;;;;;;;;;;5078441;28;20115;-46
2022/03/21 02:23:17;;;;;;;15.40;7.00;;;;;;;;;;5075546;28;20024;-47
2022/03/21 02:25:43;;;;;;;13.52;6.50;;;;;;;;;;5089881;28;20047;-47
2022/03/21 02:28:12;;;;;;;16.42;7.55;;;;;;;;;;5087071;28;20080;-48
2022/03/21 02:30:39;;;;;;;12.73;6.78;;;;;;;;;;5084706;28;20043;-47
2022/03/21 02:33:06;;;;;;;13.07;6.95;;;;;;;;;;5076572;28;20044;-47
2022/03/21 02:35:32;;;;;;;13.82;6.47;;;;;;;;;;5088934;28;20356;-47
2022/03/21 02:37:58;;;;;;;14.68;7.28;;;;;;;;;;5075364;28;20036;-48
2022/03/21 02:40:25;;;;;;;13.55;7.35;;;;;;;;;;5075149;28;20020;-51
2022/03/21 02:42:51;;;;;;;14.23;6.88;;;;;;;;;;5090331;28;20020;-52
2022/03/21 02:45:17;;;;;;;15.75;7.38;;;;;;;;;;5081400;28;20111;-52
2022/03/21 02:47:43;;;;;;;14.00;6.88;;;;;;;;;;5076588;28;20368;-51
2022/03/21 02:50:12;;;;;;;12.52;6.70;;;;;;;;;;5080677;28;20028;-48
2022/03/21 02:52:39;;;;;;;12.93;6.90;;;;;;;;;;5085195;28;20069;-47
2022/03/21 02:55:05;;;;;;;14.90;6.55;;;;;;;;;;5090685;28;20107;-47
2022/03/21 02:57:32;;;;;;;14.48;7.10;;;;;;;;;;5086435;28;20046;-47
2022/03/21 02:59:59;;;;;;;21.52;7.65;;;;;;;;;;5076891;28;20027;-47
2022/03/21 03:02:25;;;;;;;12.73;6.28;;;;;;;;;;5078816;28;20074;-48
2022/03/21 03:04:51;;;;;;;12.50;6.75;;;;;;;;;;5080430;28;20020;-49
2022/03/21 03:07:17;;;;;;;12.85;6.68;;;;;;;;;;5089134;28;20034;-47
2022/03/21 03:09:42;;;;;;;10.02;6.43;;;;;;;;;;5077416;28;20029;-48
2022/03/21 03:12:09;;;;;;;13.77;6.55;;;;;;;;;;5089127;28;20476;-47
2022/03/21 03:14:35;;;;;;;15.05;6.97;;;;;;;;;;5084550;28;20827;-49
2022/03/21 03:17:01;;;;;;;12.00;6.97;;;;;;;;;;5079982;28;20021;-52
2022/03/21 03:19:27;;;;;;;11.32;6.82;;;;;;;;;;5075722;28;20491;-53
2022/03/21 03:21:54;;;;;;;12.02;6.55;;;;;;;;;;5080198;28;20071;-50
2022/03/21 03:24:21;;;;;;;12.75;6.72;;;;;;;;;;5083135;28;20032;-47
2022/03/21 03:26:46;;;;;;;14.70;6.65;;;;;;;;;;5085354;28;20099;-48
2022/03/21 03:29:12;;;;;;;11.73;6.43;;;;;;;;;;5082782;28;20050;-48
2022/03/21 03:31:39;;;;;;;12.40;6.75;;;;;;;;;;5083711;28;20043;-48
2022/03/21 03:34:05;;;;;;;14.00;6.65;;;;;;;;;;5074405;28;20083;-47
2022/03/21 03:36:31;;;;;;;10.90;6.20;;;;;;;;;;5076859;28;20345;-48
2022/03/21 03:38:58;;;;;;;13.55;6.90;;;;;;;;;;5089652;28;20028;-47
2022/03/21 03:41:24;;;;;;;11.60;6.85;;;;;;;;;;5086772;28;20027;-47
2022/03/21 03:43:50;;;;;;;14.38;6.88;;;;;;;;;;5086638;28;20043;-49
2022/03/21 03:46:17;;;;;;;13.90;7.45;;;;;;;;;;5083925;28;20024;-49
2022/03/21 03:48:43;;;;;;;11.88;6.45;;;;;;;;;;5090238;28;20028;-50
2022/03/21 03:51:09;;;;;;;14.25;6.95;;;;;;;;;;5079693;28;20028;-47
2022/03/21 03:53:35;;;;;;;11.50;6.25;;;;;;;;;;5081588;28;20047;-50
2022/03/21 03:56:01;;;;;;;13.30;7.07;;;;;;;;;;5079694;28;20027;-50
2022/03/21 03:58:28;;;;;;;14.20;6.68;;;;;;;;;;5086198;28;20039;-48
2022/03/21 04:00:54;;;;;;;14.63;6.45;;;;;;;;;;5078115;28;20081;-49
2022/03/21 04:06:05;;;;;;;13.63;6.95;;;;;;;;;;5079505;28;20055;-48
2022/03/21 04:08:31;;;;;;;12.95;6.85;;;;;;;;;;5087963;28;20376;-50
2022/03/21 04:10:57;;;;;;;15.20;7.90;;;;;;;;;;5075247;28;20032;-48
2022/03/21 04:13:23;;;;;;;15.38;7.03;;;;;;;;;;5086129;28;20032;-47
2022/03/21 04:15:49;;;;;;;14.38;8.13;;;;;;;;;;5087074;28;20031;-47
2022/03/21 04:18:15;;;;;;;17.25;8.27;;;;;;;;;;5078462;28;20112;-47
2022/03/21 04:20:41;;;;;;;20.95;7.78;;;;;;;;;;5081742;28;20097;-47
2022/03/21 04:23:09;;;;;;;14.75;8.13;;;;;;;;;;5076613;28;20024;-47
2022/03/21 04:25:35;;;;;;;13.10;6.90;;;;;;;;;;5090114;28;20020;-48
2022/03/21 04:28:08;;;;;;;14.95;7.47;;;;;;;;;;5072041;28;20036;-46
2022/03/21 04:30:34;;;;;;;13.13;7.93;;;;;;;;;;5077496;28;20056;-47
2022/03/21 04:33:00;;;;;;;21.65;8.48;;;;;;;;;;5076207;28;20078;-49
2022/03/21 04:35:26;;;;;;;15.55;8.15;;;;;;;;;;5080439;28;20036;-52
2022/03/21 04:37:52;;;;;;;16.92;8.63;;;;;;;;;;5076201;28;20040;-50
2022/03/21 04:40:18;;;;;;;16.05;7.88;;;;;;;;;;5091333;28;20024;-50
2022/03/21 04:42:44;;;;;;;16.40;7.53;;;;;;;;;;5078397;28;20040;-47
2022/03/21 04:45:10;;;;;;;17.83;8.90;;;;;;;;;;5085234;28;20020;-48
2022/03/21 04:47:36;;;;;;;15.25;8.00;;;;;;;;;;5079311;28;20055;-48
2022/03/21 04:50:02;;;;;;;15.85;8.25;;;;;;;;;;5077502;28;20040;-48
2022/03/21 04:52:28;;;;;;;16.98;8.00;;;;;;;;;;5077645;28;20043;-47
2022/03/21 04:54:54;;;;;;;15.77;8.63;;;;;;;;;;5078908;28;20028;-47
2022/03/21 04:57:21;;;;;;;14.73;8.27;;;;;;;;;;5079931;28;20025;-48
2022/03/21 04:59:47;;;;;;;21.55;8.80;;;;;;;;;;5086176;28;20119;-47
2022/03/21 05:02:13;;;;;;;21.33;8.80;;;;;;;;;;5083846;28;20024;-47
2022/03/21 05:04:39;;;;;;;22.95;9.15;;;;;;;;;;5080169;28;20028;-51
2022/03/21 05:07:06;;;;;;;17.92;8.80;;;;;;;;;;5082108;28;20028;-47
2022/03/21 05:09:32;;;;;;;19.58;9.20;;;;;;;;;;5088456;28;20039;-48
2022/03/21 05:11:58;;;;;;;14.82;8.25;;;;;;;;;;5084100;28;20104;-46
2022/03/21 05:14:24;;;;;;;21.85;9.70;;;;;;;;;;5085651;28;20034;-50
2022/03/21 05:16:50;;;;;;;16.67;8.82;;;;;;;;;;5085387;28;20395;-47
2022/03/21 05:19:16;;;;;;;22.35;10.55;;;;;;;;;;5078702;28;20122;-47
2022/03/21 05:21:42;;;;;;;18.50;9.80;;;;;;;;;;5085945;28;20027;-48
2022/03/21 05:32:23;;;;;;;19.33;10.68;;;;;;;;;;5080089;28;20106;-49
2022/03/21 05:37:33;;;;;;;38.90;19.50;;;;;;;;;;5080197;28;20498;-48
2022/03/21 05:42:44;;;;;;;26.15;14.68;;;;;;;;;;5078987;28;20554;-50
2022/03/21 05:45:10;;;;;;;18.33;9.13;;;;;;;;;;5077397;28;20024;-48
2022/03/21 05:48:50;;;;;;;26.55;14.02;;;;;;;;;;5077831;28;20027;-49
2022/03/21 05:50:22;;;;;;;21.30;10.13;;;;;;;;;;5081099;28;20051;-48
2022/03/21 05:52:48;;;;;;;18.00;9.57;;;;;;;;;;5083069;28;20040;-47
2022/03/21 05:55:14;;;;;;;22.67;9.80;;;;;;;;;;5089598;28;20377;-47
2022/03/21 05:57:41;;;;;;;20.77;9.35;;;;;;;;;;5077592;28;20443;-48
2022/03/21 06:00:22;;;;;;;18.90;8.98;;;;;;;;;;5083898;28;20063;-47
2022/03/21 06:02:49;;;;;;;17.98;8.48;;;;;;;;;;5080606;28;20036;-46
2022/03/21 06:05:15;;;;;;;17.63;8.25;;;;;;;;;;5080584;28;20385;-47
2022/03/21 06:07:41;;;;;;;18.40;9.50;;;;;;;;;;5084675;28;20027;-48
2022/03/21 06:10:07;;;;;;;18.85;9.10;;;;;;;;;;5091135;28;20013;-47
2022/03/21 06:12:33;;;;;;;20.40;8.35;;;;;;;;;;5092800;28;20028;-50
2022/03/21 06:14:59;;;;;;;19.77;9.15;;;;;;;;;;5085905;28;20136;-51
2022/03/21 06:17:25;;;;;;;17.60;8.38;;;;;;;;;;5081461;28;20046;-49
2022/03/21 06:19:51;;;;;;;20.20;9.32;;;;;;;;;;5082305;28;20024;-47
2022/03/21 06:22:17;;;;;;;26.25;12.77;;;;;;;;;;5084477;28;20028;-48
2022/03/21 06:24:43;;;;;;;22.42;10.20;;;;;;;;;;5087941;28;20082;-48
2022/03/21 06:27:09;;;;;;;20.70;8.95;;;;;;;;;;5091352;28;20020;-47
2022/03/21 06:29:37;;;;;;;15.52;8.65;;;;;;;;;;5087775;28;20043;-47
2022/03/21 06:32:04;;;;;;;23.33;9.98;;;;;;;;;;5090936;28;20346;-48
2022/03/21 06:34:30;;;;;;;14.27;7.85;;;;;;;;;;5075898;28;20052;-47
2022/03/21 06:36:56;;;;;;;23.40;9.95;;;;;;;;;;5086440;28;20495;-47
2022/03/21 06:39:22;;;;;;;22.83;10.93;;;;;;;;;;5086127;28;20059;-50
2022/03/21 06:41:51;;;;;;;22.10;9.90;;;;;;;;;;5073540;28;20024;-47
2022/03/21 06:44:17;;;;;;;19.70;9.25;;;;;;;;;;5084595;28;20063;-49
2022/03/21 06:46:43;;;;;;;19.70;9.75;;;;;;;;;;5079199;28;20816;-51
2022/03/21 06:49:08;;;;;;;20.52;9.98;;;;;;;;;;5077460;28;20021;-51
2022/03/21 06:51:34;;;;;;;39.40;15.77;;;;;;;;;;5080320;28;20048;-48
2022/03/21 06:54:00;;;;;;;19.60;9.50;;;;;;;;;;5079021;28;20480;-50
2022/03/21 06:56:26;;;;;;;41.78;16.38;;;;;;;;;;5081346;28;20032;-48
2022/03/21 06:58:52;;;;;;;18.73;8.80;;;;;;;;;;5087190;28;20031;-50
2022/03/21 07:01:19;;;;;;;18.60;8.95;;;;;;;;;;5085236;28;20093;-47
2022/03/21 07:03:45;;;;;;;21.00;9.40;;;;;;;;;;5083352;28;20107;-48
2022/03/21 07:06:11;;;;;;;21.25;10.02;;;;;;;;;;5085918;28;20027;-49
2022/03/21 07:08:37;;;;;;;28.10;10.25;;;;;;;;;;5092786;28;20044;-48
2022/03/21 07:11:03;;;;;;;25.42;9.40;;;;;;;;;;5079647;28;20469;-47
2022/03/21 07:13:29;;;;;;;21.98;9.85;;;;;;;;;;5078731;28;20024;-47
2022/03/21 07:15:56;;;;;;;38.20;14.23;;;;;;;;;;5075186;28;20059;-47
2022/03/21 07:18:22;;;;;;;34.58;13.55;;;;;;;;;;5077554;28;20469;-49
2022/03/21 07:20:48;;;;;;;44.65;16.08;;;;;;;;;;5084166;28;20070;-51
2022/03/21 07:23:14;;;;;;;36.30;14.02;;;;;;;;;;5081008;28;20024;-51
2022/03/21 07:25:40;;;;;;;24.23;13.48;;;;;;;;;;5085099;28;20028;-48
2022/03/21 07:28:06;;;;;;;16.42;8.27;;;;;;;;;;5085201;28;20031;-49
2022/03/21 07:30:32;;;;;;;20.70;9.07;;;;;;;;;;5081857;28;20496;-48
2022/03/21 07:32:59;;;;;;;20.08;9.02;;;;;;;;;;5080750;28;20038;-49
2022/03/21 07:35:25;;;;;;;23.10;10.18;;;;;;;;;;5085637;28;20035;-51
2022/03/21 07:37:57;;;;;;;21.48;9.93;;;;;;;;;;5077978;28;20036;-48
2022/03/21 07:40:24;;;;;;;32.42;12.65;;;;;;;;;;5079744;28;20076;-46
2022/03/21 07:42:50;;;;;;;29.98;13.40;;;;;;;;;;5073667;28;20024;-50
2022/03/21 07:48:01;;;;;;;24.40;10.40;;;;;;;;;;5078083;28;20089;-49
2022/03/21 07:50:29;;;;;;;29.30;13.52;;;;;;;;;;5081271;28;20032;-49
2022/03/21 07:52:57;;;;;;;17.35;7.68;;;;;;;;;;5087420;28;20040;-47
2022/03/21 07:55:23;;;;;;;16.70;8.25;;;;;;;;;;5078825;28;20028;-50
2022/03/21 07:57:49;;;;;;;17.00;7.88;;;;;;;;;;5081123;28;20447;-50
2022/03/21 08:00:16;;;;;;;14.85;7.80;;;;;;;;;;5077407;28;20511;-49
2022/03/21 08:02:43;;;;;;;19.42;10.70;;;;;;;;;;5081823;28;20032;-48
2022/03/21 08:05:09;;;;;;;15.52;8.07;;;;;;;;;;5087597;28;20037;-52
2022/03/21 08:07:36;;;;;;;17.65;7.32;;;;;;;;;;5078133;28;20135;-48
2022/03/21 08:10:05;;;;;;;19.30;9.93;;;;;;;;;;5084214;28;20479;-48
2022/03/21 08:12:31;;;;;;;23.40;8.73;;;;;;;;;;5073473;28;20396;-47
2022/03/21 08:14:59;;;;;;;19.23;9.13;;;;;;;;;;5082636;28;20040;-47
2022/03/21 08:17:26;;;;;;;15.60;7.65;;;;;;;;;;5074702;28;20028;-48
2022/03/21 08:19:52;;;;;;;26.60;11.02;;;;;;;;;;5078089;28;20082;-48
2022/03/21 08:22:19;;;;;;;19.10;7.40;;;;;;;;;;5072101;28;20032;-47
2022/03/21 08:24:45;;;;;;;12.48;6.13;;;;;;;;;;5081503;28;20036;-48
2022/03/21 08:27:11;;;;;;;16.20;8.88;;;;;;;;;;5081390;28;20086;-47
2022/03/21 08:29:39;;;;;;;15.90;7.95;;;;;;;;;;5082881;28;20024;-47
2022/03/21 08:32:06;;;;;;;12.63;7.20;;;;;;;;;;5078692;28;20056;-47
2022/03/21 08:34:32;;;;;;;13.55;6.57;;;;;;;;;;5086483;28;20042;-48
2022/03/21 08:36:58;;;;;;;12.75;7.00;;;;;;;;;;5083766;28;20032;-47
2022/03/21 08:39:24;;;;;;;12.13;6.43;;;;;;;;;;5083742;28;20060;-48
2022/03/21 08:41:51;;;;;;;11.77;5.82;;;;;;;;;;5078378;28;20028;-50
2022/03/21 08:44:19;;;;;;;9.57;5.40;;;;;;;;;;5087715;28;20621;-49
2022/03/21 08:46:45;;;;;;;13.80;6.40;;;;;;;;;;5089790;28;20028;-50
2022/03/21 08:49:23;;;;;;;13.70;5.85;;;;;;;;;;5086789;28;20046;-47
2022/03/21 08:51:50;;;;;;;10.55;5.80;;;;;;;;;;5080093;28;20067;-48
2022/03/21 08:54:16;;;;;;;11.55;5.80;;;;;;;;;;5079046;28;20048;-48
2022/03/21 08:56:42;;;;;;;12.40;6.35;;;;;;;;;;5084487;28;20111;-47
2022/03/21 08:59:08;;;;;;;10.43;5.57;;;;;;;;;;5077279;28;20031;-48
2022/03/21 09:01:34;;;;;;;13.70;5.55;;;;;;;;;;5082867;28;20028;-47
2022/03/21 09:04:01;;;;;;;12.43;6.28;;;;;;;;;;5082940;28;20020;-48
2022/03/21 09:06:27;;;;;;;11.48;5.65;;;;;;;;;;5082242;28;20028;-47
2022/03/21 09:08:53;;;;;;;10.32;6.10;;;;;;;;;;5086162;28;20474;-50
2022/03/21 09:11:19;;;;;;;11.98;5.35;;;;;;;;;;5085793;28;20037;-48
2022/03/21 09:13:46;;;;;;;10.15;5.60;;;;;;;;;;5083568;28;20029;-49
2022/03/21 09:16:13;;;;;;;10.30;5.35;;;;;;;;;;5082307;28;20020;-50
2022/03/21 09:18:39;;;;;;;7.88;4.97;;;;;;;;;;5087998;28;20028;-49
2022/03/21 09:21:05;;;;;;;11.02;5.50;;;;;;;;;;5086719;28;20035;-48
2022/03/21 09:23:33;;;;;;;12.18;5.40;;;;;;;;;;5079374;28;20107;-49
2022/03/21 09:26:00;;;;;;;10.75;5.32;;;;;;;;;;5082589;28;20024;-49
2022/03/21 09:28:26;;;;;;;8.32;5.18;;;;;;;;;;5076795;28;20155;-49
2022/03/21 09:30:52;;;;;;;9.85;4.97;;;;;;;;;;5083651;28;20032;-48
2022/03/21 09:33:18;;;;;;;8.65;4.93;;;;;;;;;;5080489;28;20476;-50
2022/03/21 09:35:44;;;;;;;10.18;5.30;;;;;;;;;;5081548;28;20020;-47
2022/03/21 09:38:10;;;;;;;9.90;5.10;;;;;;;;;;5081099;28;20040;-47
2022/03/21 09:40:36;;;;;;;8.15;4.88;;;;;;;;;;5089145;28;20027;-48
2022/03/21 09:43:02;;;;;;;12.23;5.18;;;;;;;;;;5079759;28;20038;-49
2022/03/21 09:45:29;;;;;;;13.75;5.10;;;;;;;;;;5086277;28;20028;-49
2022/03/21 09:48:16;;;;;;;10.98;5.25;;;;;;;;;;5077166;28;20020;-50
2022/03/21 09:50:44;;;;;;;10.10;5.65;;;;;;;;;;5083281;28;20047;-49
2022/03/21 09:53:12;;;;;;;18.83;5.45;;;;;;;;;;5081655;28;20166;-50
2022/03/21 09:55:39;;;;;;;12.23;5.55;;;;;;;;;;5081854;28;20463;-47
2022/03/21 09:58:05;;;;;;;9.52;5.13;;;;;;;;;;5080500;28;20035;-49
2022/03/21 10:00:32;;;;;;;7.63;4.65;;;;;;;;;;5084959;28;20059;-53
2022/03/21 10:02:58;;;;;;;8.52;5.35;;;;;;;;;;5080552;28;20048;-48
2022/03/21 10:05:35;;;;;;;10.00;5.10;;;;;;;;;;5081168;28;20475;-48
2022/03/21 10:08:13;;;;;;;9.85;5.63;;;;;;;;;;5079364;28;20025;-50
2022/03/21 10:10:39;;;;;;;9.88;5.32;;;;;;;;;;5084190;28;20031;-49
2022/03/21 10:13:09;;;;;;;10.48;5.88;;;;;;;;;;5086371;28;20030;-48
2022/03/21 10:15:35;;;;;;;7.95;5.25;;;;;;;;;;5094182;28;20020;-48
2022/03/21 10:18:08;;;;;;;9.80;4.88;;;;;;;;;;5084350;28;20100;-48
2022/03/21 10:20:35;;;;;;;8.15;5.05;;;;;;;;;;5084402;28;20484;-53
2022/03/21 10:23:17;;;;;;;10.63;5.38;;;;;;;;;;5081448;28;20024;-48
2022/03/21 10:25:44;;;;;;;11.00;5.28;;;;;;;;;;5085051;28;20020;-50
2022/03/21 10:28:10;;;;;;;8.35;4.15;;;;;;;;;;5087147;28;20020;-47
2022/03/21 10:30:45;;;;;;;11.65;5.75;;;;;;;;;;5083941;28;20387;-49
2022/03/21 10:33:11;;;;;;;8.23;4.90;;;;;;;;;;5075542;28;20020;-47
2022/03/21 10:35:45;;;;;;;11.35;4.93;;;;;;;;;;5072104;28;20025;-49
2022/03/21 10:38:11;;;;;;;8.10;4.53;;;;;;;;;;5083445;28;20035;-47
2022/03/21 10:40:48;;;;;;;11.10;5.50;;;;;;;;;;5089449;28;20028;-48
2022/03/21 10:43:15;;;;;;;8.63;4.18;;;;;;;;;;5081438;28;20025;-48
2022/03/21 10:45:46;;;;;;;8.75;4.20;;;;;;;;;;5082147;28;20360;-50
2022/03/21 10:48:13;;;;;;;9.48;4.53;;;;;;;;;;5083981;28;20024;-48
2022/03/21 10:50:42;;;;;;;7.05;4.18;;;;;;;;;;5084532;28;20498;-52
2022/03/21 10:53:16;;;;;;;9.63;4.53;;;;;;;;;;5077138;28;20041;-48
2022/03/21 10:55:44;;;;;;;8.82;4.50;;;;;;;;;;5080098;28;20024;-53
2022/03/21 10:58:11;;;;;;;6.38;3.75;;;;;;;;;;5078718;28;20024;-50
2022/03/21 11:00:37;;;;;;;8.95;4.40;;;;;;;;;;5092356;28;20446;-49
2022/03/21 11:03:09;;;;;;;6.30;3.90;;;;;;;;;;5084516;28;20071;-54
2022/03/21 11:05:38;;;;;;;7.78;4.28;;;;;;;;;;5083332;28;20024;-49
2022/03/21 11:08:08;;;;;;;6.07;4.20;;;;;;;;;;5086110;28;20027;-50
2022/03/21 11:10:35;;;;;;;8.00;4.47;;;;;;;;;;5078188;28;20044;-49
2022/03/21 11:13:02;;;;;;;7.00;4.28;;;;;;;;;;5078191;28;20107;-52
2022/03/21 11:15:32;;;;;;;8.13;5.00;;;;;;;;;;5073851;28;20463;-48
2022/03/21 11:17:58;;;;;;;8.38;4.57;;;;;;;;;;5083864;28;20059;-49
2022/03/21 11:20:25;;;;;;;6.47;3.80;;;;;;;;;;5075051;28;20039;-49
2022/03/21 11:22:52;;;;;;;7.53;4.57;;;;;;;;;;5090124;28;20028;-48
2022/03/21 11:25:18;;;;;;;6.78;3.72;;;;;;;;;;5087614;28;20380;-48
2022/03/21 11:27:56;;;;;;;6.68;3.63;;;;;;;;;;5080392;28;20039;-48
2022/03/21 11:30:22;;;;;;;6.50;3.45;;;;;;;;;;5080776;28;20043;-48
2022/03/21 11:32:55;;;;;;;5.90;3.53;;;;;;;;;;5079461;28;20024;-50
2022/03/21 11:35:25;;;;;;;5.15;3.63;;;;;;;;;;5076814;28;20037;-49
2022/03/21 11:37:53;;;;;;;5.25;3.17;;;;;;;;;;5086474;28;20028;-48
2022/03/21 11:40:32;;;;;;;6.13;3.90;;;;;;;;;;5073010;28;20020;-52
2022/03/21 11:43:19;;;;;;;7.50;3.17;;;;;;;;;;5085244;28;20031;-47
2022/03/21 11:45:46;;;;;;;5.68;3.45;;;;;;;;;;5084767;28;20024;-52
2022/03/21 11:48:18;;;;;;;8.27;3.67;;;;;;;;;;5081380;28;20024;-51
2022/03/21 11:50:48;;;;;;;4.90;3.20;;;;;;;;;;5077707;28;20589;-54
2022/03/21 11:53:15;;;;;;;6.05;3.45;;;;;;;;;;5083062;28;20372;-53
2022/03/21 11:55:42;;;;;;;6.00;3.67;;;;;;;;;;5092118;28;20032;-53
2022/03/21 11:58:23;;;;;;;6.88;3.97;;;;;;;;;;5079605;28;20452;-51
2022/03/21 12:01:02;;;;;;;6.38;4.10;;;;;;;;;;5084325;28;20109;-51
2022/03/21 12:03:28;;;;;;;7.00;4.28;;;;;;;;;;5082494;28;20024;-53
2022/03/21 12:05:54;;;;;;;4.65;3.33;;;;;;;;;;5075766;28;20074;-49
2022/03/21 12:08:33;;;;;;;6.65;3.50;;;;;;;;;;5080938;28;20031;-50
2022/03/21 12:10:59;;;;;;;9.05;3.75;;;;;;;;;;5076813;28;20052;-51
2022/03/21 12:13:25;;;;;;;6.15;3.47;;;;;;;;;;5089486;28;20511;-51
2022/03/21 12:15:52;;;;;;;5.30;3.53;;;;;;;;;;5080033;28;20032;-46
2022/03/21 12:18:21;;;;;;;5.18;3.28;;;;;;;;;;5084420;28;20064;-49
2022/03/21 12:20:49;;;;;;;4.78;3.10;;;;;;;;;;5086104;28;20085;-46
2022/03/21 12:23:25;;;;;;;6.25;3.20;;;;;;;;;;5084950;28;20381;-46
2022/03/21 12:25:52;;;;;;;4.70;3.10;;;;;;;;;;5071526;28;20031;-49
2022/03/21 12:28:18;;;;;;;6.20;3.33;;;;;;;;;;5077605;28;20041;-47
2022/03/21 12:30:48;;;;;;;5.65;3.13;;;;;;;;;;5080022;28;20031;-49
2022/03/21 12:33:14;;;;;;;5.57;3.20;;;;;;;;;;5080327;28;20061;-47
2022/03/21 12:35:42;;;;;;;5.72;3.25;;;;;;;;;;5083051;28;20047;-50
2022/03/21 12:38:24;;;;;;;5.93;3.33;;;;;;;;;;5080194;28;20040;-52
2022/03/21 12:40:58;;;;;;;4.53;2.93;;;;;;;;;;5085915;28;20019;-49
2022/03/21 12:43:25;;;;;;;4.93;2.75;;;;;;;;;;5082086;28;20039;-47
2022/03/21 12:45:54;;;;;;;5.18;3.08;;;;;;;;;;5076410;28;20024;-49
2022/03/21 12:48:20;;;;;;;4.68;2.75;;;;;;;;;;5081519;28;20021;-48
2022/03/21 12:50:49;;;;;;;4.30;2.92;;;;;;;;;;5087013;28;20503;-47
2022/03/21 12:53:18;;;;;;;7.55;3.20;;;;;;;;;;5086276;28;20078;-46
2022/03/21 12:55:44;;;;;;;4.82;3.00;;;;;;;;;;5082459;28;20346;-51
2022/03/21 12:58:11;;;;;;;4.53;3.03;;;;;;;;;;5078761;28;20073;-51
2022/03/21 13:00:46;;;;;;;5.40;2.85;;;;;;;;;;5079676;28;20028;-48
2022/03/21 13:03:14;;;;;;;3.85;2.70;;;;;;;;;;5072571;28;20077;-48
2022/03/21 13:11:24;;;;;;;5.63;2.75;;;;;;;;;;5085049;28;20051;-48
2022/03/21 13:13:54;;;;;;;4.65;2.88;;;;;;;;;;5087367;28;20028;-47
2022/03/21 13:16:20;;;;;;;4.90;2.80;;;;;;;;;;5078019;28;20480;-47
2022/03/21 13:18:46;;;;;;;4.18;2.85;;;;;;;;;;5085276;28;20058;-49
2022/03/21 13:21:12;;;;;;;5.28;3.30;;;;;;;;;;5083246;28;20411;-54
2022/03/21 13:23:43;;;;;;;5.32;3.10;;;;;;;;;;5086194;28;20073;-49
2022/03/21 13:26:10;;;;;;;5.13;2.63;;;;;;;;;;5084692;28;20020;-49
2022/03/21 13:28:38;;;;;;;5.57;3.42;;;;;;;;;;5082760;28;20071;-50
2022/03/21 13:31:07;;;;;;;5.30;2.42;;;;;;;;;;5086639;28;20094;-48
2022/03/21 13:33:33;;;;;;;5.25;2.90;;;;;;;;;;5077197;28;20387;-50
2022/03/21 13:36:04;;;;;;;5.70;3.03;;;;;;;;;;5077784;28;20069;-50
2022/03/21 13:38:32;;;;;;;4.82;2.92;;;;;;;;;;5087999;28;20044;-50
2022/03/21 13:40:58;;;;;;;3.58;2.40;;;;;;;;;;5088830;28;20020;-52
2022/03/21 13:43:32;;;;;;;5.53;3.28;;;;;;;;;;5093959;28;20024;-48
2022/03/21 13:45:59;;;;;;;4.65;3.38;;;;;;;;;;5091290;28;20067;-52
2022/03/21 13:48:35;;;;;;;3.92;2.47;;;;;;;;;;5091954;28;20116;-52
2022/03/21 13:51:04;;;;;;;5.47;2.95;;;;;;;;;;5093187;28;20039;-52
2022/03/21 13:53:30;;;;;;;3.97;2.75;;;;;;;;;;5088002;28;20048;-48
2022/03/21 13:55:58;;;;;;;6.38;2.95;;;;;;;;;;5091295;28;20024;-49
2022/03/21 13:58:34;;;;;;;4.10;2.70;;;;;;;;;;5082708;28;20124;-48
2022/03/21 14:01:00;;;;;;;5.68;3.28;;;;;;;;;;5093214;28;20066;-50
2022/03/21 14:03:34;;;;;;;7.95;3.80;;;;;;;;;;5091201;28;20471;-47
2022/03/21 14:06:01;;;;;;;5.25;3.30;;;;;;;;;;5079656;28;20735;-49
2022/03/21 14:08:27;;;;;;;4.00;2.90;;;;;;;;;;5083934;28;20520;-50
2022/03/21 14:11:16;;;;;;;5.28;3.22;;;;;;;;;;5083367;28;20119;-49
2022/03/21 14:13:43;;;;;;;5.07;3.00;;;;;;;;;;5083755;28;20032;-49
2022/03/21 14:16:09;;;;;;;6.47;3.20;;;;;;;;;;5084916;28;20029;-48
2022/03/21 14:18:36;;;;;;;3.92;2.58;;;;;;;;;;5082367;28;20036;-51
2022/03/21 14:21:04;;;;;;;4.05;2.80;;;;;;;;;;5084570;28;20385;-52
2022/03/21 14:23:31;;;;;;;4.63;2.60;;;;;;;;;;5083333;28;20036;-50
2022/03/21 14:28:42;;;;;;;6.07;3.25;;;;;;;;;;5093771;28;20035;-47
2022/03/21 14:31:09;;;;;;;4.47;2.97;;;;;;;;;;5092879;28;20031;-49
2022/03/21 14:33:35;;;;;;;5.60;3.17;;;;;;;;;;5079317;28;20035;-49
2022/03/21 14:36:02;;;;;;;4.43;3.13;;;;;;;;;;5083879;28;20496;-50
2022/03/21 14:38:28;;;;;;;5.93;3.17;;;;;;;;;;5087061;28;20066;-52
2022/03/21 14:40:54;;;;;;;4.85;3.13;;;;;;;;;;5089746;28;20055;-52
2022/03/21 14:43:25;;;;;;;5.85;2.60;;;;;;;;;;5087928;28;20077;-48
2022/03/21 14:45:51;;;;;;;5.13;2.95;;;;;;;;;;5073853;28;20025;-51
2022/03/21 14:48:17;;;;;;;5.68;2.47;;;;;;;;;;5081382;28;20035;-48
2022/03/21 14:50:43;;;;;;;4.43;2.70;;;;;;;;;;5088436;28;20404;-53
2022/03/21 14:53:09;;;;;;;3.83;2.55;;;;;;;;;;5088614;28;20036;-48
2022/03/21 14:55:35;;;;;;;4.93;3.45;;;;;;;;;;5083082;28;20039;-48
2022/03/21 14:58:01;;;;;;;4.30;2.67;;;;;;;;;;5081406;28;20141;-49
2022/03/21 15:00:28;;;;;;;3.83;2.60;;;;;;;;;;5079639;28;20044;-51
2022/03/21 15:02:54;;;;;;;5.93;3.05;;;;;;;;;;5083314;28;20035;-48
2022/03/21 15:05:20;;;;;;;4.80;2.92;;;;;;;;;;5090373;28;20062;-47